Main page
METAR-TAF:

METAR-TAF

Airports :

Aviano Air Base

Aviano, Italy

latitude: 46-02N, longitude: 012-36E, elevation: 128 m

Current weather observation

The report was made 30 minutes ago, at 14:55 UTC
Wind 3 kt from the West
Temperature 19°C
Humidity 40%
Pressure 1020 hPa
Visibility 10 km or more
no clouds below 1500 m and no cumulonimbus

METAR: LIPA 221455Z 26003KT CAVOK 19/05 Q1020 RMK SKC VIS MIN 9999 WIND THR05 /////KT WIND THR23 /////KT A3013 BLU

Time: 17:25 (15:25 UTC)

Forecast

The report was made 1 hour and 25 minutes ago, at 14:00 UTC
Forecast valid from 22 at 15 UTC to 22 at 24 UTC
Wind 5 kt from variable directions
Visibility 10 km or more
no clouds below 1500 m and no cumulonimbus

TAF: LIPA 221400Z 2215/2224 VRB05KT CAVOK

Weather observations and forecasts of more than 4000 airports (METAR and TAF reports).

The available stations are represented by yellow and red dots on the map.

Hover mouse over dot to see the name of the station.

Then click to see weather observations and forecasts.

To change the map : click on the green buttons with a black cross to zoom in, on the green button with a dash to zoom out, or on the green arrows for adjacent maps.


METAR-TAF: